Time;durP1;ratioP1;P1;durP2;ratioP2;P2;SDS_P1;SDS_P2;PMS_P1;PMS_P2;Temp;Humidity;BMP_temperature;BMP_pressure;BME280_temperature;BME280_humidity;BME280_pressure;Samples;Min_cycle;Max_cycle;Signal;HPM_P1;HPM_P2
2021/10/22 00:01:14;;;;;;;12.50;2.73;;;;;;;6.67;85.05;100760.94;5068349;28;20654;-68
2021/10/22 00:03:40;;;;;;;8.53;1.67;;;;;;;6.67;85.14;100760.06;5060260;28;20667;-68
2021/10/22 00:06:06;;;;;;;13.67;1.87;;;;;;;6.69;85.06;100749.16;5067377;28;20719;-68
2021/10/22 00:08:32;;;;;;;8.07;2.00;;;;;;;6.71;85.13;100755.16;5067974;28;20577;-70
2021/10/22 00:10:57;;;;;;;10.80;2.10;;;;;;;6.73;85.09;100760.28;5067561;28;20181;-70
2021/10/22 00:13:23;;;;;;;13.83;2.60;;;;;;;6.72;84.81;100758.56;5067633;28;20775;-70
2021/10/22 00:15:49;;;;;;;9.57;2.50;;;;;;;6.66;86.10;100766.84;5070235;28;21096;-70
2021/10/22 00:18:17;;;;;;;13.20;2.43;;;;;;;6.65;85.61;100765.13;5063420;28;20294;-69
2021/10/22 00:20:42;;;;;;;8.47;2.47;;;;;;;6.62;86.27;100765.03;5069279;28;20208;-68
2021/10/22 00:23:07;;;;;;;8.37;1.97;;;;;;;6.63;86.11;100768.44;5061310;28;20196;-69
2021/10/22 00:25:33;;;;;;;16.93;3.17;;;;;;;6.61;85.77;100757.34;5069837;28;20192;-68
2021/10/22 00:27:58;;;;;;;6.90;2.17;;;;;;;6.63;86.39;100764.19;5069172;28;20284;-68
2021/10/22 00:30:23;;;;;;;10.13;2.17;;;;;;;6.61;86.29;100765.84;5063561;28;20197;-68
2021/10/22 00:32:49;;;;;;;9.73;2.33;;;;;;;6.59;86.08;100767.44;5068975;28;20554;-69
2021/10/22 00:35:15;;;;;;;12.40;2.87;;;;;;;6.63;86.29;100781.16;5069819;28;20678;-69
2021/10/22 00:37:40;;;;;;;10.23;2.70;;;;;;;6.64;86.27;100782.88;5061973;28;20579;-70
2021/10/22 00:40:07;;;;;;;9.87;2.30;;;;;;;6.63;85.94;100773.53;5066861;28;20193;-70
2021/10/22 00:42:33;;;;;;;13.80;2.27;;;;;;;6.66;85.23;100771.94;5069068;28;20239;-68
2021/10/22 00:44:59;;;;;;;8.20;1.83;;;;;;;6.67;85.26;100773.66;5069627;28;20256;-71
2021/10/22 00:47:24;;;;;;;11.73;2.50;;;;;;;6.65;85.70;100770.22;5062700;28;20244;-70
2021/10/22 00:49:50;;;;;;;11.00;1.97;;;;;;;6.63;85.36;100773.53;5067245;28;20193;-70
2021/10/22 00:52:20;;;;;;;10.67;1.93;;;;;;;6.63;85.67;100765.91;5069604;28;20185;-68
2021/10/22 00:54:46;;;;;;;9.77;2.33;;;;;;;6.61;85.45;100777.69;5067065;28;20592;-68
2021/10/22 00:57:13;;;;;;;8.03;1.97;;;;;;;6.61;85.54;100783.66;5061536;28;20263;-69
2021/10/22 00:59:38;;;;;;;13.53;2.53;;;;;;;6.67;85.70;100775.34;5069501;28;20194;-69
2021/10/22 01:02:03;;;;;;;6.03;1.90;;;;;;;6.65;85.08;100771.88;5069606;28;20611;-69
2021/10/22 01:04:29;;;;;;;10.43;2.17;;;;;;;6.65;85.29;100776.97;5063118;28;20190;-70
2021/10/22 01:06:55;;;;;;;12.90;2.43;;;;;;;6.65;85.38;100774.44;5069403;28;20315;-69
2021/10/22 01:09:21;;;;;;;13.37;2.80;;;;;;;6.63;85.39;100768.44;5067514;28;20201;-71
2021/10/22 01:11:47;;;;;;;11.23;2.67;;;;;;;6.64;84.99;100776.09;5064605;28;20188;-69
2021/10/22 01:14:12;;;;;;;10.93;2.40;;;;;;;6.65;85.69;100776.97;5069359;28;20196;-68
2021/10/22 01:16:39;;;;;;;7.30;1.80;;;;;;;6.65;85.44;100784.59;5066029;28;20213;-69
2021/10/22 01:19:05;;;;;;;6.93;1.60;;;;;;;6.70;85.94;100773.78;5066302;28;20820;-69
2021/10/22 01:21:31;;;;;;;11.30;2.33;;;;;;;6.70;85.62;100789.03;5068499;28;20184;-69
2021/10/22 01:23:56;;;;;;;10.57;2.10;;;;;;;6.70;85.86;100783.97;5063078;28;20570;-69
2021/10/22 01:26:22;;;;;;;8.53;2.00;;;;;;;6.68;85.13;100772.00;5067113;28;20178;-69
2021/10/22 01:28:48;;;;;;;6.10;1.53;;;;;;;6.71;85.64;100775.50;5062949;28;20265;-69
2021/10/22 01:31:14;;;;;;;9.20;1.80;;;;;;;6.73;85.36;100783.19;5067768;28;20542;-69
2021/10/22 01:33:41;;;;;;;6.50;1.53;;;;;;;6.73;85.04;100784.03;5069465;28;20328;-69
2021/10/22 01:36:06;;;;;;;10.40;1.97;;;;;;;6.77;84.76;100775.69;5069112;28;20208;-69
2021/10/22 01:38:32;;;;;;;10.13;1.70;;;;;;;6.80;84.94;100777.47;5056273;28;20201;-69
2021/10/22 01:40:58;;;;;;;7.10;1.87;;;;;;;6.82;84.49;100771.63;5063724;28;20180;-69
2021/10/22 01:43:25;;;;;;;8.67;2.00;;;;;;;6.84;84.45;100790.38;5062034;28;20190;-71
2021/10/22 01:45:51;;;;;;;7.57;1.67;;;;;;;6.85;84.92;100775.94;5062041;28;20542;-71
2021/10/22 01:48:16;;;;;;;6.20;1.53;;;;;;;6.92;83.72;100783.84;5068869;28;20201;-71
2021/10/22 01:50:43;;;;;;;8.57;1.50;;;;;;;6.86;84.37;100770.06;5068327;28;20238;-71
2021/10/22 01:53:09;;;;;;;8.27;1.90;;;;;;;6.81;84.29;100777.53;5068915;28;20658;-69
2021/10/22 01:55:35;;;;;;;7.50;1.60;;;;;;;6.81;84.28;100775.00;5060077;28;20192;-69
2021/10/22 01:58:02;;;;;;;6.67;1.63;;;;;;;6.82;84.16;100766.53;5061169;28;20248;-69
2021/10/22 02:00:28;;;;;;;6.53;2.23;;;;;;;6.79;83.66;100779.19;5059643;28;20276;-69
2021/10/22 02:02:53;;;;;;;11.23;2.30;;;;;;;6.79;84.52;100783.38;5064871;28;20272;-69
2021/10/22 02:05:19;;;;;;;8.90;1.73;;;;;;;6.79;84.14;100780.84;5069035;28;20338;-69
2021/10/22 02:07:44;;;;;;;6.97;1.53;;;;;;;6.81;84.53;100771.59;5067634;28;20217;-69
2021/10/22 02:10:09;;;;;;;7.03;1.67;;;;;;;6.83;83.57;100783.56;5068877;28;20213;-71
2021/10/22 02:12:35;;;;;;;7.20;1.47;;;;;;;6.87;84.52;100776.88;5062467;28;20200;-70
2021/10/22 02:15:01;;;;;;;5.37;1.20;;;;;;;6.91;83.60;100771.91;5060930;28;20655;-69
2021/10/22 02:17:26;;;;;;;5.87;1.40;;;;;;;6.93;83.03;100774.53;5067836;28;20274;-69
2021/10/22 02:19:52;;;;;;;9.50;1.63;;;;;;;6.92;83.47;100777.88;5068803;28;20201;-69
2021/10/22 02:22:17;;;;;;;8.57;1.40;;;;;;;6.90;83.57;100780.38;5062292;28;20677;-69
2021/10/22 02:24:43;;;;;;;8.80;1.40;;;;;;;6.93;84.25;100775.41;5066995;28;20186;-69
2021/10/22 02:27:08;;;;;;;8.97;1.70;;;;;;;6.95;83.04;100776.31;5061554;28;20284;-69
2021/10/22 02:29:34;;;;;;;6.40;1.60;;;;;;;6.94;83.93;100771.16;5051444;28;20220;-69
2021/10/22 02:31:59;;;;;;;4.23;1.40;;;;;;;6.98;83.43;100776.41;5066348;28;20225;-69
2021/10/22 02:34:25;;;;;;;5.33;1.53;;;;;;;6.99;83.09;100759.44;5064080;28;20288;-69
2021/10/22 02:36:51;;;;;;;7.57;1.37;;;;;;;7.00;83.94;100761.19;5066711;28;20209;-69
2021/10/22 02:39:17;;;;;;;7.30;1.27;;;;;;;7.05;84.12;100772.38;5069282;28;20853;-71
2021/10/22 02:41:44;;;;;;;6.63;1.40;;;;;;;7.05;82.97;100768.13;5068126;28;20198;-69
2021/10/22 02:44:10;;;;;;;5.07;1.10;;;;;;;7.06;83.58;100761.38;5068232;28;20567;-68
2021/10/22 02:46:36;;;;;;;5.13;1.47;;;;;;;7.09;83.06;100758.94;5065402;28;20194;-69
2021/10/22 02:49:01;;;;;;;7.57;1.60;;;;;;;7.08;84.06;100758.06;5062614;28;20232;-71
2021/10/22 02:51:28;;;;;;;8.13;1.47;;;;;;;7.11;83.25;100750.53;5068312;28;20281;-69
2021/10/22 02:53:54;;;;;;;10.93;1.70;;;;;;;7.13;83.10;100764.16;5066977;28;20264;-69
2021/10/22 02:56:19;;;;;;;8.30;1.80;;;;;;;7.15;82.98;100751.50;5070549;28;20252;-69
2021/10/22 02:58:46;;;;;;;8.53;1.60;;;;;;;7.16;83.38;100743.91;5062898;28;20270;-69
2021/10/22 03:01:11;;;;;;;7.10;1.40;;;;;;;7.15;83.05;100736.22;5070026;28;20197;-71
2021/10/22 03:03:36;;;;;;;6.50;1.70;;;;;;;7.15;83.32;100737.09;5069972;28;20189;-69
2021/10/22 03:06:03;;;;;;;5.70;1.73;;;;;;;7.16;83.12;100743.03;5071546;28;20580;-71
2021/10/22 03:08:29;;;;;;;8.50;1.83;;;;;;;7.18;82.97;100757.53;5070607;28;20208;-69
2021/10/22 03:10:54;;;;;;;10.10;1.80;;;;;;;7.18;82.60;100742.25;5071627;28;20200;-69
2021/10/22 03:13:19;;;;;;;6.30;1.40;;;;;;;7.17;82.24;100737.09;5070551;28;20181;-69
2021/10/22 03:15:46;;;;;;;7.00;1.20;;;;;;;7.16;82.24;100736.25;5058394;28;20264;-69
2021/10/22 03:18:11;;;;;;;7.40;1.60;;;;;;;7.14;83.03;100711.56;5070360;28;20217;-69
2021/10/22 03:20:37;;;;;;;7.03;1.67;;;;;;;7.11;83.32;100720.00;5071628;28;20188;-69
2021/10/22 03:23:05;;;;;;;10.30;2.23;;;;;;;7.15;82.64;100726.03;5062113;28;20193;-69
2021/10/22 03:25:31;;;;;;;7.83;1.83;;;;;;;7.15;82.83;100715.84;5070506;28;20200;-69
2021/10/22 03:28:04;;;;;;;7.47;1.87;;;;;;;7.17;82.29;100707.44;5059205;28;20213;-71
2021/10/22 03:30:31;;;;;;;9.43;1.57;;;;;;;7.23;82.04;100706.75;5067151;28;20193;-71
2021/10/22 03:32:56;;;;;;;8.93;1.50;;;;;;;7.26;81.50;100699.19;5070150;28;20205;-71
2021/10/22 03:35:22;;;;;;;4.13;1.50;;;;;;;7.27;81.53;100709.44;5071209;28;20208;-69
2021/10/22 03:37:47;;;;;;;8.93;1.40;;;;;;;7.31;81.79;100710.38;5063932;28;20797;-71
2021/10/22 03:40:12;;;;;;;7.20;1.57;;;;;;;7.31;81.55;100715.47;5071492;28;20242;-69
2021/10/22 03:42:38;;;;;;;10.23;1.80;;;;;;;7.30;81.65;100709.53;5065625;28;20221;-71
2021/10/22 03:45:04;;;;;;;7.43;1.63;;;;;;;7.30;82.53;100714.63;5070788;28;20185;-69
2021/10/22 03:47:29;;;;;;;10.43;2.17;;;;;;;7.31;81.83;100716.34;5069422;28;20202;-69
2021/10/22 03:49:55;;;;;;;8.00;1.73;;;;;;;7.31;81.55;100712.94;5070984;28;20201;-69
2021/10/22 03:52:20;;;;;;;6.90;1.90;;;;;;;7.27;82.53;100693.31;5064122;28;20340;-69
2021/10/22 03:54:45;;;;;;;7.00;1.60;;;;;;;7.30;81.69;100685.75;5069876;28;20197;-69
2021/10/22 03:57:10;;;;;;;8.07;1.83;;;;;;;7.30;80.90;100696.81;5064816;28;20283;-69
2021/10/22 03:59:36;;;;;;;8.67;1.67;;;;;;;7.26;81.21;100692.44;5069586;28;20216;-69
2021/10/22 04:02:01;;;;;;;12.30;2.00;;;;;;;7.25;81.17;100695.81;5070663;28;20280;-69
2021/10/22 04:04:30;;;;;;;6.47;1.50;;;;;;;7.25;81.03;100689.84;5068521;28;20224;-69
2021/10/22 04:06:57;;;;;;;7.37;1.53;;;;;;;7.22;80.89;100697.38;5070047;28;20940;-69
2021/10/22 04:09:26;;;;;;;7.50;1.50;;;;;;;7.18;81.03;100695.59;5070425;28;20181;-69
2021/10/22 04:11:52;;;;;;;13.53;2.03;;;;;;;7.21;81.17;100682.91;5063043;28;21018;-68
2021/10/22 04:14:19;;;;;;;7.43;2.07;;;;;;;7.20;81.21;100684.63;5066143;28;20189;-69
2021/10/22 04:16:44;;;;;;;6.80;1.97;;;;;;;7.12;81.57;100664.81;5063974;28;20358;-69
2021/10/22 04:19:10;;;;;;;14.57;2.83;;;;;;;7.15;81.17;100678.53;5070171;28;20283;-69
2021/10/22 04:21:35;;;;;;;9.93;1.57;;;;;;;7.16;81.21;100671.75;5068185;28;20198;-68
2021/10/22 04:24:00;;;;;;;7.37;1.73;;;;;;;7.13;81.14;100674.19;5068234;28;20200;-69
2021/10/22 04:26:25;;;;;;;8.27;1.63;;;;;;;7.10;82.06;100672.41;5068945;28;20182;-69
2021/10/22 04:28:51;;;;;;;10.47;2.37;;;;;;;7.10;81.45;100674.97;5060863;28;20220;-69
2021/10/22 04:31:16;;;;;;;7.40;2.20;;;;;;;7.07;82.27;100679.09;5069163;28;20205;-69
2021/10/22 04:33:41;;;;;;;5.90;1.40;;;;;;;7.07;81.13;100668.91;5062424;28;20204;-69
2021/10/22 04:36:12;;;;;;;8.13;2.20;;;;;;;7.07;81.66;100674.88;5069655;28;20193;-69
2021/10/22 04:41:21;;;;;;;7.77;1.97;;;;;;;7.03;81.11;100662.00;5067894;28;20189;-69
2021/10/22 04:43:51;;;;;;;8.80;2.07;;;;;;;7.05;80.98;100662.94;5068623;28;20200;-69
2021/10/22 04:46:17;;;;;;;6.70;2.47;;;;;;;7.06;81.57;100657.88;5062496;28;20189;-70
2021/10/22 04:48:44;;;;;;;8.70;2.03;;;;;;;7.03;81.83;100644.19;5065854;28;20213;-69
2021/10/22 04:51:10;;;;;;;9.60;2.03;;;;;;;7.08;80.61;100652.81;5069750;28;20549;-69
2021/10/22 04:53:35;;;;;;;9.33;1.80;;;;;;;7.07;80.63;100654.53;5060552;28;20231;-69
2021/10/22 04:56:01;;;;;;;7.43;1.60;;;;;;;7.12;81.00;100647.00;5069374;28;20193;-69
2021/10/22 04:58:26;;;;;;;11.10;3.13;;;;;;;7.21;79.80;100637.09;5050627;28;20229;-69
2021/10/22 05:00:52;;;;;;;8.20;1.70;;;;;;;7.22;80.50;100634.59;5063730;28;20692;-69
2021/10/22 05:03:18;;;;;;;10.30;1.93;;;;;;;7.22;80.18;100642.22;5065367;28;20288;-69
2021/10/22 05:05:44;;;;;;;7.17;1.87;;;;;;;7.32;80.06;100631.50;5069305;28;20264;-69
2021/10/22 05:08:09;;;;;;;11.43;3.17;;;;;;;7.31;78.84;100637.41;5062461;28;20221;-69
2021/10/22 05:10:34;;;;;;;8.47;2.53;;;;;;;7.34;79.02;100614.59;5062140;28;20200;-69
2021/10/22 05:13:00;;;;;;;9.63;2.33;;;;;;;7.36;78.93;100632.44;5062984;28;20194;-69
2021/10/22 05:15:26;;;;;;;7.00;1.60;;;;;;;7.35;79.60;100634.13;5066922;28;20189;-69
2021/10/22 05:17:51;;;;;;;7.80;1.70;;;;;;;7.42;79.22;100628.38;5067688;28;20221;-69
2021/10/22 05:20:16;;;;;;;6.07;2.13;;;;;;;7.41;79.91;100615.63;5067916;28;20565;-69
2021/10/22 05:22:42;;;;;;;10.63;2.40;;;;;;;7.40;79.42;100624.06;5062515;28;20669;-69
2021/10/22 05:25:10;;;;;;;9.67;1.73;;;;;;;7.42;80.84;100613.09;5067582;28;20628;-69
2021/10/22 05:27:35;;;;;;;7.80;1.90;;;;;;;7.40;80.54;100591.81;5068075;28;20262;-69
2021/10/22 05:30:01;;;;;;;13.30;2.63;;;;;;;7.37;80.78;100583.25;5063489;28;20189;-69
2021/10/22 05:32:26;;;;;;;10.27;2.43;;;;;;;7.39;80.52;100587.56;5059503;28;20269;-69
2021/10/22 05:34:52;;;;;;;11.10;2.07;;;;;;;7.38;80.66;100587.50;5059746;28;20186;-69
2021/10/22 05:37:18;;;;;;;6.30;1.63;;;;;;;7.33;81.47;100579.72;5067286;28;20217;-69
2021/10/22 05:39:44;;;;;;;10.20;2.27;;;;;;;7.33;80.94;100582.28;5067916;28;20577;-69
2021/10/22 05:42:09;;;;;;;8.97;2.07;;;;;;;7.35;80.59;100564.50;5067041;28;20189;-68
2021/10/22 05:44:34;;;;;;;9.33;2.87;;;;;;;7.35;81.24;100562.81;5064840;28;20189;-69
2021/10/22 05:47:00;;;;;;;9.13;2.27;;;;;;;7.36;81.45;100564.53;5062169;28;20240;-69
2021/10/22 05:49:26;;;;;;;6.80;1.70;;;;;;;7.40;79.64;100563.81;5069083;28;20201;-69
2021/10/22 05:51:52;;;;;;;8.93;2.23;;;;;;;7.42;79.73;100562.16;5058481;28;20203;-69
2021/10/22 05:54:18;;;;;;;8.10;2.17;;;;;;;7.38;79.92;100545.06;5069088;28;20256;-69
2021/10/22 05:56:43;;;;;;;14.50;3.00;;;;;;;7.37;80.70;100552.69;5066611;28;20220;-69
2021/10/22 05:59:09;;;;;;;10.50;2.10;;;;;;;7.35;81.67;100557.72;5061065;28;20208;-69
2021/10/22 06:01:34;;;;;;;10.40;2.53;;;;;;;7.40;80.77;100553.63;5068844;28;20213;-69
2021/10/22 06:04:00;;;;;;;9.93;2.07;;;;;;;7.42;79.93;100551.97;5069023;28;20183;-69
2021/10/22 06:06:26;;;;;;;10.17;2.20;;;;;;;7.39;80.49;100557.00;5068909;28;20516;-69
2021/10/22 06:08:52;;;;;;;6.40;2.27;;;;;;;7.44;79.62;100562.19;5069377;28;20847;-69
2021/10/22 06:11:18;;;;;;;9.00;2.30;;;;;;;7.45;80.61;100574.13;5072832;28;20272;-69
2021/10/22 06:13:43;;;;;;;8.27;2.30;;;;;;;7.44;80.82;100574.94;5064621;28;20202;-69
2021/10/22 06:16:11;;;;;;;7.57;2.00;;;;;;;7.48;80.66;100585.28;5052560;28;20200;-69
2021/10/22 06:18:45;;;;;;;9.00;1.90;;;;;;;7.51;80.20;100564.94;5070992;28;20229;-68
2021/10/22 06:21:19;;;;;;;11.57;1.97;;;;;;;7.58;79.69;100565.97;5071606;28;20739;-69
2021/10/22 06:24:01;;;;;;;8.60;2.03;;;;;;;7.52;80.27;100565.81;5071366;28;20190;-70
2021/10/22 06:26:30;;;;;;;8.07;1.90;;;;;;;7.56;78.77;100571.03;5072370;28;20185;-69
2021/10/22 06:28:56;;;;;;;7.97;1.97;;;;;;;7.58;79.80;100566.84;5072370;28;20197;-69
2021/10/22 06:31:22;;;;;;;10.17;2.30;;;;;;;7.65;79.25;100572.97;5045577;28;20236;-70
2021/10/22 06:33:48;;;;;;;14.43;2.70;;;;;;;7.65;79.30;100550.06;5061926;28;20193;-71
2021/10/22 06:36:14;;;;;;;9.40;2.70;;;;;;;7.67;79.21;100559.47;5072013;28;20199;-70
2021/10/22 06:38:39;;;;;;;12.07;2.47;;;;;;;7.72;79.15;100562.09;5071207;28;20581;-70
2021/10/22 06:41:09;;;;;;;8.60;1.80;;;;;;;7.76;78.60;100552.06;5071879;28;20190;-70
2021/10/22 06:43:39;;;;;;;7.10;1.73;;;;;;;7.78;78.92;100552.09;5072163;28;20240;-70
2021/10/22 06:46:05;;;;;;;12.73;2.83;;;;;;;7.77;78.58;100541.03;5071203;28;20245;-69
2021/10/22 06:48:31;;;;;;;10.17;2.23;;;;;;;7.82;78.15;100544.56;5065886;28;20300;-70
2021/10/22 06:50:57;;;;;;;8.03;1.90;;;;;;;7.87;78.62;100542.13;5065701;28;20292;-70
2021/10/22 06:53:22;;;;;;;9.73;2.43;;;;;;;7.90;78.45;100547.28;5071327;28;20185;-70
2021/10/22 06:55:49;;;;;;;8.83;2.80;;;;;;;7.96;78.31;100540.66;5071435;28;20177;-70
2021/10/22 06:58:14;;;;;;;10.07;2.10;;;;;;;8.03;77.32;100549.31;5066383;28;20232;-70
2021/10/22 07:00:40;;;;;;;10.47;2.10;;;;;;;8.02;77.49;100540.81;5066120;28;20279;-70
2021/10/22 07:03:05;;;;;;;10.00;2.27;;;;;;;8.08;77.43;100547.75;5060657;28;20188;-70
2021/10/22 07:05:50;;;;;;;12.10;2.53;;;;;;;8.11;77.65;100558.03;5070075;28;20200;-70
2021/10/22 07:08:16;;;;;;;12.60;2.70;;;;;;;8.14;77.04;100535.13;5069152;28;20712;-70
2021/10/22 07:10:41;;;;;;;7.30;1.60;;;;;;;8.15;77.51;100536.88;5071190;28;20189;-69
2021/10/22 07:13:07;;;;;;;7.93;2.00;;;;;;;8.17;77.08;100532.66;5071180;28;20188;-70
2021/10/22 07:15:32;;;;;;;11.93;3.70;;;;;;;8.15;76.97;100536.88;5061135;28;20207;-69
2021/10/22 07:18:02;;;;;;;7.67;2.03;;;;;;;8.18;77.23;100536.94;5058820;28;20240;-69
2021/10/22 07:20:28;;;;;;;7.30;2.10;;;;;;;8.21;77.42;100544.69;5068913;28;20703;-69
2021/10/22 07:23:01;;;;;;;11.83;2.53;;;;;;;8.27;77.58;100549.94;5052555;28;20201;-70
2021/10/22 07:25:27;;;;;;;10.27;2.10;;;;;;;8.35;77.49;100545.88;5066318;28;20561;-69
2021/10/22 07:27:52;;;;;;;7.10;1.77;;;;;;;8.40;76.54;100532.41;5069109;28;20193;-70
2021/10/22 07:30:17;;;;;;;10.20;2.30;;;;;;;8.41;76.67;100523.94;5070804;28;20204;-69
2021/10/22 07:32:44;;;;;;;9.00;2.37;;;;;;;8.42;76.04;100534.97;5055014;28;20221;-70
2021/10/22 07:35:10;;;;;;;8.13;1.97;;;;;;;8.79;76.00;100529.84;5055369;28;20194;-69
2021/10/22 07:37:36;;;;;;;14.00;2.40;;;;;;;8.93;74.23;100534.44;5050245;28;20574;-69
2021/10/22 07:40:03;;;;;;;7.37;2.10;;;;;;;8.95;74.19;100527.69;5068997;28;20205;-70
2021/10/22 07:42:29;;;;;;;8.23;2.20;;;;;;;8.89;74.90;100527.53;5070574;28;20205;-69
2021/10/22 07:44:59;;;;;;;4.87;1.73;;;;;;;9.15;73.80;100511.06;5063737;28;20209;-69
2021/10/22 07:47:26;;;;;;;6.20;1.87;;;;;;;9.13;73.11;100517.81;5069583;28;20236;-69
2021/10/22 07:49:52;;;;;;;8.43;2.73;;;;;;;9.06;73.65;100517.66;5070244;28;20265;-69
2021/10/22 07:52:23;;;;;;;6.40;1.97;;;;;;;9.32;73.12;100508.81;5070078;28;20272;-69
2021/10/22 07:54:49;;;;;;;6.43;1.83;;;;;;;9.44;72.25;100509.91;5052290;28;20398;-70
2021/10/22 07:57:15;;;;;;;7.63;2.20;;;;;;;9.38;72.97;100507.25;5059590;28;20281;-70
2021/10/22 07:59:40;;;;;;;6.33;2.10;;;;;;;9.63;72.30;100504.28;5069822;28;20682;-70
2021/10/22 08:02:07;;;;;;;8.57;2.17;;;;;;;9.52;71.88;100499.81;5070136;28;20943;-69
2021/10/22 08:04:33;;;;;;;7.83;1.93;;;;;;;9.37;73.00;100505.53;5069788;28;20266;-69
2021/10/22 08:06:59;;;;;;;7.07;1.63;;;;;;;9.21;73.80;100500.09;5069684;28;20200;-71
2021/10/22 08:09:25;;;;;;;6.77;2.17;;;;;;;9.29;73.99;100504.50;5070040;28;20188;-70
2021/10/22 08:11:50;;;;;;;11.97;1.97;;;;;;;9.44;73.24;100499.69;5068713;28;20169;-70
2021/10/22 08:14:16;;;;;;;7.03;2.37;;;;;;;9.37;73.17;100502.97;5049934;28;20959;-70
2021/10/22 08:16:41;;;;;;;7.37;1.70;;;;;;;9.32;73.14;100509.69;5049814;28;20210;-69
2021/10/22 08:19:07;;;;;;;10.63;2.00;;;;;;;9.25;73.26;100507.84;5049908;28;20671;-68
2021/10/22 08:21:56;;;;;;;10.20;2.43;;;;;;;9.19;73.82;100510.28;5048645;28;20659;-69
2021/10/22 08:24:20;;;;;;;10.13;2.83;;;;;;;9.08;75.48;100509.19;5049828;28;20275;-71
2021/10/22 08:26:45;;;;;;;13.03;3.00;;;;;;;9.04;76.18;100509.97;5049453;28;20694;-70
2021/10/22 08:29:11;;;;;;;6.77;1.80;;;;;;;9.00;77.41;100513.31;5064549;28;20249;-70
2021/10/22 08:31:36;;;;;;;12.93;2.30;;;;;;;8.95;77.24;100514.03;5054070;28;20318;-70
2021/10/22 08:34:01;;;;;;;9.93;2.80;;;;;;;8.92;76.91;100507.19;5069491;28;20288;-70
2021/10/22 08:36:27;;;;;;;11.50;2.80;;;;;;;8.99;77.80;100514.13;5069165;28;20220;-70
2021/10/22 08:38:52;;;;;;;6.17;2.07;;;;;;;9.12;76.72;100505.88;5069352;28;20193;-69
2021/10/22 08:41:20;;;;;;;7.33;2.10;;;;;;;9.34;76.42;100499.47;5067967;28;20208;-69
2021/10/22 08:43:46;;;;;;;4.87;2.17;;;;;;;10.24;74.05;100501.06;5068951;28;20223;-71
2021/10/22 08:46:13;;;;;;;7.67;1.93;;;;;;;10.47;71.62;100486.91;5064489;28;20193;-71
2021/10/22 08:48:40;;;;;;;8.10;1.90;;;;;;;9.71;73.58;100491.63;5067785;28;20213;-70
2021/10/22 08:51:06;;;;;;;9.37;2.03;;;;;;;9.47;76.03;100504.84;5069165;28;20221;-71
2021/10/22 08:53:32;;;;;;;7.57;2.77;;;;;;;9.34;77.35;100492.69;5069131;28;20561;-70
2021/10/22 08:55:58;;;;;;;9.67;1.97;;;;;;;9.33;78.59;100498.63;5067556;28;20263;-70
2021/10/22 08:58:26;;;;;;;9.50;2.53;;;;;;;9.32;76.74;100516.47;5068957;28;20217;-69
2021/10/22 09:00:52;;;;;;;8.67;2.30;;;;;;;9.39;76.48;100502.97;5068982;28;20199;-70
2021/10/22 09:03:19;;;;;;;10.87;2.30;;;;;;;9.54;76.15;100495.59;5063849;28;20237;-70
2021/10/22 09:06:02;;;;;;;7.43;1.80;;;;;;;9.92;74.46;100490.31;5048348;28;20181;-70
2021/10/22 09:08:34;;;;;;;7.07;2.30;;;;;;;10.41;71.62;100474.03;5049030;28;20268;-69
2021/10/22 09:11:04;;;;;;;6.73;1.77;;;;;;;11.09;69.33;100476.59;5047672;28;20197;-70
2021/10/22 09:13:33;;;;;;;7.77;2.10;;;;;;;12.20;65.88;100472.50;5049005;28;20678;-71
2021/10/22 09:16:17;;;;;;;6.10;2.00;;;;;;;14.06;61.60;100461.09;5048765;28;20273;-71
2021/10/22 09:18:43;;;;;;;7.37;2.13;;;;;;;11.62;65.77;100479.75;5051093;28;20236;-70
2021/10/22 09:21:08;;;;;;;10.33;2.20;;;;;;;10.68;70.09;100480.34;5049862;28;20610;-70
2021/10/22 09:23:36;;;;;;;7.33;2.43;;;;;;;10.29;72.40;100476.41;5048979;28;20177;-70
2021/10/22 09:26:17;;;;;;;8.03;2.50;;;;;;;10.24;72.87;100458.44;5047341;28;20200;-70
2021/10/22 09:28:44;;;;;;;9.43;2.00;;;;;;;10.01;73.62;100474.22;5048659;28;20259;-71
2021/10/22 09:31:11;;;;;;;7.97;1.93;;;;;;;9.90;74.21;100474.06;5028741;28;20207;-70
2021/10/22 09:33:53;;;;;;;10.27;2.30;;;;;;;9.93;75.67;100489.47;5049084;28;20263;-70
2021/10/22 09:36:38;;;;;;;11.63;2.77;;;;;;;9.67;77.24;100505.22;5048498;28;20178;-71
2021/10/22 09:39:20;;;;;;;8.37;2.53;;;;;;;9.43;80.15;100507.31;5049234;28;20210;-70
2021/10/22 09:41:53;;;;;;;8.10;2.43;;;;;;;9.38;81.30;100503.81;5048713;28;20263;-70
2021/10/22 09:44:21;;;;;;;10.17;2.87;;;;;;;9.25;80.79;100507.84;5051814;28;20673;-71
2021/10/22 09:46:47;;;;;;;10.07;3.10;;;;;;;9.26;82.64;100501.88;5072161;28;20834;-69
2021/10/22 09:49:25;;;;;;;7.97;2.70;;;;;;;9.22;82.57;100500.09;5072441;28;20204;-70
2021/10/22 09:51:54;;;;;;;8.33;3.00;;;;;;;9.12;83.65;100513.53;5072628;28;20185;-69
2021/10/22 09:54:19;;;;;;;7.47;2.60;;;;;;;9.05;84.40;100505.72;5064286;28;20209;-69
2021/10/22 09:56:54;;;;;;;10.37;2.73;;;;;;;9.08;84.32;100490.47;5060486;28;20245;-69
2021/10/22 09:59:25;;;;;;;9.27;2.70;;;;;;;9.15;82.72;100500.84;5075519;28;20268;-69
2021/10/22 10:01:52;;;;;;;8.63;2.50;;;;;;;9.09;83.86;100497.28;5067208;28;20228;-69
2021/10/22 10:04:17;;;;;;;8.20;2.50;;;;;;;8.98;84.21;100509.00;5053026;28;20265;-69
2021/10/22 10:06:44;;;;;;;8.73;3.17;;;;;;;8.89;85.17;100504.56;5053088;28;20273;-69
2021/10/22 10:09:10;;;;;;;10.83;2.80;;;;;;;8.90;86.02;100492.66;5053070;28;20210;-69
2021/10/22 10:11:37;;;;;;;7.87;2.00;;;;;;;8.85;84.60;100504.47;5058823;28;20193;-69
2021/10/22 10:14:03;;;;;;;7.80;2.43;;;;;;;8.84;85.59;100523.19;5061172;28;20229;-69
2021/10/22 10:16:31;;;;;;;9.97;2.53;;;;;;;8.81;85.36;100521.41;5051843;28;20212;-69
2021/10/22 10:19:06;;;;;;;5.07;1.70;;;;;;;8.84;84.01;100533.41;5055546;28;20225;-69
2021/10/22 10:21:40;;;;;;;6.17;1.80;;;;;;;8.82;84.39;100542.69;5071445;28;20216;-69
2021/10/22 10:24:06;;;;;;;7.40;2.10;;;;;;;8.75;85.61;100551.06;5071611;28;20185;-68
2021/10/22 10:26:34;;;;;;;5.63;2.23;;;;;;;8.65;86.80;100547.44;5053394;28;20209;-69
2021/10/22 10:29:06;;;;;;;5.73;2.33;;;;;;;8.68;87.66;100557.72;5062967;28;20213;-69
2021/10/22 10:31:38;;;;;;;9.07;2.00;;;;;;;8.71;86.24;100551.81;5072465;28;20270;-70
2021/10/22 10:34:31;;;;;;;9.50;2.57;;;;;;;8.72;86.91;100543.34;5067038;28;20196;-69
2021/10/22 10:37:05;;;;;;;8.03;2.00;;;;;;;8.72;86.21;100543.34;5066528;28;20248;-69
2021/10/22 10:39:42;;;;;;;6.23;2.57;;;;;;;8.77;86.78;100540.06;5072414;28;20186;-69
2021/10/22 10:42:29;;;;;;;5.17;1.80;;;;;;;8.78;86.30;100543.44;5072569;28;20545;-70
2021/10/22 10:44:57;;;;;;;6.93;2.20;;;;;;;8.71;86.57;100552.66;5070632;28;20549;-69
2021/10/22 10:47:34;;;;;;;3.57;1.30;;;;;;;8.70;85.39;100542.44;5069528;28;20225;-69
2021/10/22 10:50:01;;;;;;;4.53;1.93;;;;;;;8.76;85.69;100538.31;5072304;28;20766;-70
2021/10/22 10:52:39;;;;;;;8.97;2.37;;;;;;;8.76;86.52;100534.91;5064008;28;20822;-69
2021/10/22 10:55:30;;;;;;;8.50;2.07;;;;;;;8.78;86.24;100546.00;5051701;28;20189;-70
2021/10/22 10:58:07;;;;;;;11.10;2.47;;;;;;;8.82;87.09;100560.56;5052123;28;20221;-70
2021/10/22 11:00:59;;;;;;;3.00;1.40;;;;;;;8.76;87.09;100568.09;5051883;28;20189;-69
2021/10/22 11:03:47;;;;;;;4.27;1.40;;;;;;;8.73;87.49;100583.34;5064338;28;20220;-69
2021/10/22 11:06:33;;;;;;;6.73;2.07;;;;;;;8.70;89.81;100583.28;5066870;28;20228;-69
2021/10/22 11:08:59;;;;;;;5.27;1.37;;;;;;;8.65;88.27;100589.94;5051856;28;20213;-70
2021/10/22 11:11:35;;;;;;;4.23;1.43;;;;;;;8.64;89.83;100601.88;5052286;28;20213;-69
2021/10/22 11:14:04;;;;;;;3.30;1.60;;;;;;;8.59;89.31;100626.41;5071835;28;20188;-70
2021/10/22 11:16:46;;;;;;;6.43;1.50;;;;;;;8.61;90.21;100627.31;5071385;28;20246;-70
2021/10/22 11:19:18;;;;;;;2.97;1.30;;;;;;;8.55;89.21;100618.63;5065960;28;20268;-70
2021/10/22 11:21:47;;;;;;;3.30;1.10;;;;;;;8.60;89.39;100611.94;5051617;28;20308;-70
2021/10/22 11:24:16;;;;;;;4.87;1.30;;;;;;;8.68;88.51;100620.66;5051596;28;20272;-70
2021/10/22 11:26:42;;;;;;;3.50;1.13;;;;;;;8.72;88.45;100609.69;5049972;28;20193;-69
2021/10/22 11:29:19;;;;;;;5.60;1.50;;;;;;;8.79;88.35;100611.53;5059046;28;20233;-70
2021/10/22 11:31:54;;;;;;;6.43;1.50;;;;;;;8.74;88.18;100620.78;5065323;28;20249;-70
2021/10/22 11:34:31;;;;;;;4.87;1.23;;;;;;;8.77;88.06;100619.19;5070228;28;20627;-70
2021/10/22 11:37:08;;;;;;;6.27;1.40;;;;;;;8.77;88.28;100608.09;5064776;28;20801;-69